createdAt,value
2022-10-17T00:00:09.801Z,82.33
2022-10-17T00:00:20.972Z,82.23
2022-10-17T00:00:31.024Z,82.19
2022-10-17T00:00:39.531Z,82.13
2022-10-17T00:00:49.541Z,81.94
2022-10-17T00:01:00.983Z,81.90
2022-10-17T00:01:09.584Z,81.98
2022-10-17T00:01:21.055Z,81.83
2022-10-17T00:01:31.055Z,81.91
2022-10-17T00:01:40.566Z,81.86
2022-10-17T00:01:49.759Z,81.76
2022-10-17T00:01:59.531Z,81.65
2022-10-17T00:02:10.973Z,81.44
2022-10-17T00:02:20.983Z,81.35
2022-10-17T00:02:29.525Z,81.23
2022-10-17T00:02:40.972Z,81.06
2022-10-17T00:02:50.974Z,80.98
2022-10-17T00:02:59.535Z,80.78
2022-10-17T00:03:10.327Z,80.52
2022-10-17T00:03:21.003Z,80.47
2022-10-17T00:03:29.513Z,80.40
2022-10-17T00:03:40.983Z,80.25
2022-10-17T00:03:50.462Z,80.32
2022-10-17T00:03:59.515Z,80.15
2022-10-17T00:04:10.971Z,80.09
2022-10-17T00:04:21.012Z,80.16
2022-10-17T00:04:30.999Z,80.08
2022-10-17T00:04:40.974Z,80.07
2022-10-17T00:04:49.503Z,80.01
2022-10-17T00:05:00.963Z,79.86
2022-10-17T00:05:09.525Z,80.07
2022-10-17T00:05:19.533Z,79.90
2022-10-17T00:05:30.954Z,79.88
2022-10-17T00:05:40.960Z,80.04
2022-10-17T00:05:49.506Z,80.00
2022-10-17T00:06:00.313Z,79.90
2022-10-17T00:06:10.944Z,79.99
2022-10-17T00:06:19.493Z,80.01
2022-10-17T00:06:30.957Z,79.89
2022-10-17T00:06:40.960Z,80.02
2022-10-17T00:06:49.493Z,80.04
2022-10-17T00:06:59.494Z,79.83
2022-10-17T00:07:10.955Z,79.83
2022-10-17T00:07:19.483Z,79.88
2022-10-17T00:07:31.111Z,79.68
2022-10-17T00:07:39.482Z,79.79
2022-10-17T00:07:49.512Z,79.68
2022-10-17T00:08:00.954Z,79.75
2022-10-17T00:08:09.505Z,79.82
2022-10-17T00:08:19.524Z,79.70
2022-10-17T00:08:30.935Z,79.78
2022-10-17T00:08:39.522Z,79.86
2022-10-17T00:08:50.932Z,79.74
2022-10-17T00:08:59.476Z,79.82
2022-10-17T00:09:09.482Z,79.69
2022-10-17T00:09:20.924Z,79.75
2022-10-17T00:09:29.684Z,79.85
2022-10-17T00:09:40.986Z,79.70
2022-10-17T00:09:50.454Z,79.81
2022-10-17T00:10:00.933Z,79.70
2022-10-17T00:10:10.913Z,79.80
2022-10-17T00:10:20.918Z,79.77
2022-10-17T00:10:29.464Z,79.75
2022-10-17T00:10:40.915Z,79.62
2022-10-17T00:10:50.015Z,79.77
2022-10-17T00:11:00.916Z,79.63
2022-10-17T00:11:09.584Z,79.75
2022-10-17T00:11:20.322Z,79.63
2022-10-17T00:11:29.535Z,79.70
2022-10-17T00:11:40.084Z,79.66
2022-10-17T00:11:50.122Z,79.66
2022-10-17T00:12:00.895Z,79.68
2022-10-17T00:12:10.896Z,79.58
2022-10-17T00:12:20.124Z,79.57
2022-10-17T00:12:30.160Z,79.45
2022-10-17T00:12:39.500Z,79.45
2022-10-17T00:12:49.506Z,79.35
2022-10-17T00:13:00.895Z,79.41
2022-10-17T00:13:09.644Z,79.46
2022-10-17T00:13:20.979Z,79.30
2022-10-17T00:13:30.258Z,79.45
2022-10-17T00:13:40.206Z,79.37
2022-10-17T00:13:50.143Z,79.36
2022-10-17T00:14:00.168Z,79.36
2022-10-17T00:14:09.417Z,79.32
2022-10-17T00:14:20.895Z,79.22
2022-10-17T00:14:30.177Z,79.31
2022-10-17T00:14:39.426Z,79.21
2022-10-17T00:14:50.886Z,79.16
2022-10-17T00:14:59.446Z,79.28
2022-10-17T00:15:10.206Z,79.14
2022-10-17T00:15:19.426Z,79.25
2022-10-17T00:15:30.926Z,79.15
2022-10-17T00:15:39.446Z,79.28
2022-10-17T00:15:50.877Z,79.15
2022-10-17T00:16:00.285Z,79.29
2022-10-17T00:16:10.866Z,79.21
2022-10-17T00:16:19.456Z,79.24
2022-10-17T00:16:29.415Z,79.10
2022-10-17T00:16:39.427Z,79.06
2022-10-17T00:16:49.428Z,79.08
2022-10-17T00:17:00.866Z,79.01
2022-10-17T00:17:10.868Z,79.02
2022-10-17T00:17:20.857Z,79.01
2022-10-17T00:17:29.978Z,78.96
2022-10-17T00:17:39.401Z,78.97
2022-10-17T00:17:50.970Z,78.90
2022-10-17T00:17:59.417Z,79.07
2022-10-17T00:18:10.897Z,78.88
2022-10-17T00:18:19.417Z,79.02
2022-10-17T00:18:29.407Z,78.90
2022-10-17T00:18:39.408Z,78.92
2022-10-17T00:18:49.428Z,78.97
2022-10-17T00:18:59.417Z,78.96
2022-10-17T00:19:09.414Z,78.92
2022-10-17T00:19:20.857Z,78.97
2022-10-17T00:19:29.427Z,79.03
2022-10-17T00:19:40.899Z,78.87
2022-10-17T00:19:49.407Z,79.04
2022-10-17T00:20:00.252Z,78.89
2022-10-17T00:20:10.860Z,78.95
2022-10-17T00:20:19.397Z,78.97
2022-10-17T00:20:29.420Z,78.90
2022-10-17T00:20:39.417Z,78.91
2022-10-17T00:20:49.408Z,78.92
2022-10-17T00:20:59.402Z,79.00
2022-10-17T00:21:09.408Z,79.01
2022-10-17T00:21:20.838Z,79.00
2022-10-17T00:21:30.831Z,79.13
2022-10-17T00:21:39.380Z,79.01
2022-10-17T00:21:50.351Z,78.85
2022-10-17T00:22:00.860Z,78.90
2022-10-17T00:22:09.388Z,78.87
2022-10-17T00:22:19.399Z,78.78
2022-10-17T00:22:29.410Z,78.81
2022-10-17T00:22:39.411Z,78.78
2022-10-17T00:22:49.406Z,78.78
2022-10-17T00:22:59.392Z,78.77
2022-10-17T00:23:10.851Z,78.79
2022-10-17T00:23:19.587Z,78.88
2022-10-17T00:23:29.364Z,78.77
2022-10-17T00:23:39.648Z,78.75
2022-10-17T00:23:50.318Z,78.80
2022-10-17T00:24:00.833Z,78.79
2022-10-17T00:24:09.377Z,78.77
2022-10-17T00:24:19.381Z,78.69
2022-10-17T00:24:29.410Z,78.68
2022-10-17T00:24:40.819Z,78.64
2022-10-17T00:24:49.359Z,78.71
2022-10-17T00:25:00.809Z,78.54
2022-10-17T00:25:10.829Z,78.60
2022-10-17T00:25:20.811Z,78.50
2022-10-17T00:25:29.405Z,78.48
2022-10-17T00:25:39.370Z,78.42
2022-10-17T00:25:50.829Z,78.44
2022-10-17T00:25:59.629Z,78.52
2022-10-17T00:26:09.359Z,78.41
2022-10-17T00:26:19.381Z,78.38
2022-10-17T00:26:29.359Z,78.37
2022-10-17T00:26:39.391Z,78.41
2022-10-17T00:26:50.844Z,78.37
2022-10-17T00:26:59.368Z,78.46
2022-10-17T00:27:09.361Z,78.29
2022-10-17T00:27:19.828Z,78.31
2022-10-17T00:27:30.727Z,78.35
2022-10-17T00:27:40.811Z,78.38
2022-10-17T00:27:49.819Z,78.29
2022-10-17T00:28:00.787Z,78.23
2022-10-17T00:28:09.489Z,78.24
2022-10-17T00:28:19.341Z,78.17
2022-10-17T00:28:29.391Z,78.12
2022-10-17T00:28:39.453Z,78.14
2022-10-17T00:28:49.405Z,78.15
2022-10-17T00:29:00.877Z,78.07
2022-10-17T00:29:09.451Z,78.09
2022-10-17T00:29:20.119Z,77.90
2022-10-17T00:29:30.796Z,77.93
2022-10-17T00:29:40.823Z,77.90
2022-10-17T00:29:50.782Z,77.86
2022-10-17T00:29:59.384Z,77.84
2022-10-17T00:30:09.331Z,77.70
2022-10-17T00:30:19.791Z,77.75
2022-10-17T00:30:29.984Z,77.77
2022-10-17T00:30:39.311Z,77.73
2022-10-17T00:30:49.331Z,77.73
2022-10-17T00:30:59.315Z,77.71
2022-10-17T00:31:09.343Z,77.73
2022-10-17T00:31:20.774Z,77.75
2022-10-17T00:31:29.320Z,77.80
2022-10-17T00:31:39.410Z,77.69
2022-10-17T00:31:49.363Z,77.65
2022-10-17T00:32:00.781Z,77.61
2022-10-17T00:32:10.111Z,77.67
2022-10-17T00:32:20.762Z,77.52
2022-10-17T00:32:29.654Z,77.47
2022-10-17T00:32:39.341Z,77.40
2022-10-17T00:32:49.374Z,77.34
2022-10-17T00:32:59.327Z,77.37
2022-10-17T00:33:09.311Z,77.24
2022-10-17T00:33:20.773Z,77.19
2022-10-17T00:33:29.292Z,77.27
2022-10-17T00:33:40.752Z,77.02
2022-10-17T00:33:49.323Z,77.10
2022-10-17T00:33:59.312Z,76.93
2022-10-17T00:34:09.421Z,76.90
2022-10-17T00:34:20.170Z,76.88
2022-10-17T00:34:29.915Z,76.88
2022-10-17T00:34:40.741Z,76.81
2022-10-17T00:34:49.302Z,76.84
2022-10-17T00:35:01.262Z,76.70
2022-10-17T00:35:10.743Z,76.88
2022-10-17T00:35:19.362Z,76.77
2022-10-17T00:35:30.236Z,76.62
2022-10-17T00:35:40.753Z,76.69
2022-10-17T00:35:49.487Z,76.61
2022-10-17T00:35:59.281Z,76.41
2022-10-17T00:36:09.295Z,76.39
2022-10-17T00:36:20.231Z,76.33
2022-10-17T00:36:30.750Z,76.32
2022-10-17T00:36:40.745Z,76.19
2022-10-17T00:36:49.293Z,76.10
2022-10-17T00:36:59.359Z,75.95
2022-10-17T00:37:10.746Z,75.93
2022-10-17T00:37:20.232Z,76.00
2022-10-17T00:37:29.283Z,75.92
2022-10-17T00:37:39.276Z,75.75
2022-10-17T00:37:49.343Z,75.74
2022-10-17T00:38:00.721Z,75.66
2022-10-17T00:38:10.757Z,75.76
2022-10-17T00:38:19.285Z,75.65
2022-10-17T00:38:30.723Z,75.56
2022-10-17T00:38:40.722Z,75.67
2022-10-17T00:38:50.704Z,75.62
2022-10-17T00:38:59.434Z,75.63
2022-10-17T00:39:10.703Z,75.55
2022-10-17T00:39:19.397Z,75.66
2022-10-17T00:39:29.254Z,75.55
2022-10-17T00:39:40.715Z,75.56
2022-10-17T00:39:50.723Z,75.67
2022-10-17T00:39:59.494Z,75.62
2022-10-17T00:40:09.465Z,75.52
2022-10-17T00:40:19.250Z,75.56
2022-10-17T00:40:29.436Z,75.60
2022-10-17T00:40:40.733Z,75.60
2022-10-17T00:40:49.631Z,75.67
2022-10-17T00:40:59.459Z,75.54
2022-10-17T00:41:09.477Z,75.52
2022-10-17T00:41:19.504Z,75.52
2022-10-17T00:41:29.504Z,75.58
2022-10-17T00:41:39.234Z,75.57
2022-10-17T00:41:49.545Z,75.59
2022-10-17T00:41:59.241Z,75.59
2022-10-17T00:42:09.475Z,75.57
2022-10-17T00:42:20.716Z,75.62
2022-10-17T00:42:30.518Z,75.64
2022-10-17T00:42:39.585Z,75.67
2022-10-17T00:42:49.235Z,75.53
2022-10-17T00:42:59.384Z,75.55
2022-10-17T00:43:09.597Z,75.65
2022-10-17T00:43:20.675Z,75.69
2022-10-17T00:43:30.693Z,75.74
2022-10-17T00:43:39.236Z,75.70
2022-10-17T00:43:49.256Z,75.58
2022-10-17T00:43:59.266Z,75.63
2022-10-17T00:44:09.595Z,75.65
2022-10-17T00:44:20.665Z,75.74
2022-10-17T00:44:30.682Z,75.81
2022-10-17T00:44:39.225Z,75.85
2022-10-17T00:44:49.255Z,75.70
2022-10-17T00:45:00.675Z,75.81
2022-10-17T00:45:09.246Z,75.91
2022-10-17T00:45:20.687Z,75.81
2022-10-17T00:45:30.699Z,75.94
2022-10-17T00:45:39.225Z,75.89
2022-10-17T00:45:50.730Z,75.75
2022-10-17T00:45:59.216Z,75.95
2022-10-17T00:46:10.685Z,75.82
2022-10-17T00:46:20.670Z,75.98
2022-10-17T00:46:30.655Z,75.94
2022-10-17T00:46:40.674Z,75.94
2022-10-17T00:46:50.657Z,75.93
2022-10-17T00:47:00.657Z,75.96
2022-10-17T00:47:09.244Z,75.94
2022-10-17T00:47:20.657Z,75.85
2022-10-17T00:47:29.216Z,76.07
2022-10-17T00:47:39.234Z,75.92
2022-10-17T00:47:50.165Z,75.97
2022-10-17T00:47:59.206Z,76.06
2022-10-17T00:48:10.682Z,75.98
2022-10-17T00:48:22.622Z,76.02
2022-10-17T00:48:30.168Z,76.24
2022-10-17T00:48:40.646Z,76.10
2022-10-17T00:48:50.044Z,75.99
2022-10-17T00:48:59.218Z,75.90
2022-10-17T00:49:10.668Z,75.83
2022-10-17T00:49:20.647Z,75.88
2022-10-17T00:49:30.158Z,75.82
2022-10-17T00:49:40.647Z,75.69
2022-10-17T00:49:49.214Z,75.74
2022-10-17T00:50:10.674Z,75.66
2022-10-17T00:50:19.428Z,75.61
2022-10-17T00:50:29.177Z,75.53
2022-10-17T00:50:39.193Z,75.56
2022-10-17T00:50:49.191Z,75.56
2022-10-17T00:51:00.641Z,75.60
2022-10-17T00:51:10.630Z,75.69
2022-10-17T00:51:19.187Z,75.59
2022-10-17T00:51:29.180Z,75.52
2022-10-17T00:51:40.627Z,75.53
2022-10-17T00:51:49.272Z,75.67
2022-10-17T00:51:59.157Z,75.52
2022-10-17T00:52:09.190Z,75.53
2022-10-17T00:52:21.384Z,75.62
2022-10-17T00:52:31.033Z,75.76
2022-10-17T00:52:40.694Z,75.68
2022-10-17T00:52:50.709Z,75.54
2022-10-17T00:53:00.673Z,75.57
2022-10-17T00:53:10.227Z,75.58
2022-10-17T00:53:20.700Z,75.56
2022-10-17T00:53:30.709Z,75.65
2022-10-17T00:53:40.681Z,75.57
2022-10-17T00:53:50.688Z,75.54
2022-10-17T00:53:59.259Z,75.53
2022-10-17T00:54:09.299Z,75.42
2022-10-17T00:54:20.688Z,75.52
2022-10-17T00:54:30.682Z,75.66
2022-10-17T00:54:40.678Z,75.64
2022-10-17T00:54:50.679Z,75.64
2022-10-17T00:55:00.672Z,75.61
2022-10-17T00:55:09.248Z,75.63
2022-10-17T00:55:19.438Z,75.55
2022-10-17T00:55:30.676Z,75.62
2022-10-17T00:55:40.689Z,75.74
2022-10-17T00:55:49.245Z,75.70
2022-10-17T00:56:00.127Z,75.55
2022-10-17T00:56:09.233Z,75.66
2022-10-17T00:56:19.230Z,75.58
2022-10-17T00:56:30.179Z,75.60
2022-10-17T00:56:39.209Z,75.70
2022-10-17T00:56:50.660Z,75.62
2022-10-17T00:57:00.649Z,75.71
2022-10-17T00:57:09.209Z,75.66
2022-10-17T00:57:20.659Z,75.54
2022-10-17T00:57:29.979Z,75.66
2022-10-17T00:57:40.704Z,75.63
2022-10-17T00:57:49.219Z,75.57
2022-10-17T00:57:59.214Z,75.38
2022-10-17T00:58:09.249Z,75.46
2022-10-17T00:58:20.642Z,75.49
2022-10-17T00:58:30.656Z,75.54
2022-10-17T00:58:39.202Z,75.53
2022-10-17T00:58:49.309Z,75.41
2022-10-17T00:58:59.261Z,75.49
2022-10-17T00:59:09.235Z,75.49
2022-10-17T00:59:19.689Z,75.46
2022-10-17T00:59:29.179Z,75.51
2022-10-17T00:59:39.211Z,75.50
2022-10-17T00:59:50.009Z,75.53
2022-10-17T00:59:59.190Z,75.58
2022-10-17T01:00:10.647Z,75.50
2022-10-17T01:00:19.189Z,75.64
2022-10-17T01:00:30.667Z,75.51
2022-10-17T01:00:40.640Z,75.72
2022-10-17T01:00:49.710Z,75.68
2022-10-17T01:00:59.199Z,75.59
2022-10-17T01:01:10.721Z,75.61
2022-10-17T01:01:19.243Z,75.77
2022-10-17T01:01:29.205Z,75.64
2022-10-17T01:01:40.698Z,75.64
2022-10-17T01:01:50.631Z,75.81
2022-10-17T01:02:00.050Z,75.78
2022-10-17T01:02:10.634Z,75.74
2022-10-17T01:02:20.630Z,75.79
2022-10-17T01:02:31.003Z,75.80
2022-10-17T01:02:39.990Z,75.81
2022-10-17T01:02:49.171Z,75.73
2022-10-17T01:02:59.190Z,75.72
2022-10-17T01:03:09.222Z,75.80
2022-10-17T01:03:19.181Z,75.76
2022-10-17T01:03:30.611Z,75.78
2022-10-17T01:03:39.171Z,75.92
2022-10-17T01:03:49.179Z,75.73
2022-10-17T01:04:00.123Z,75.82
2022-10-17T01:04:09.633Z,75.88
2022-10-17T01:04:20.591Z,75.82
2022-10-17T01:04:30.604Z,75.91
2022-10-17T01:04:39.142Z,75.85
2022-10-17T01:04:50.617Z,75.71
2022-10-17T01:05:00.625Z,75.82
2022-10-17T01:05:10.608Z,75.79
2022-10-17T01:05:19.991Z,75.76
2022-10-17T01:05:30.609Z,75.73
2022-10-17T01:05:39.151Z,75.80
2022-10-17T01:05:49.230Z,75.72
2022-10-17T01:05:59.133Z,75.79
2022-10-17T01:06:10.630Z,75.73
2022-10-17T01:06:19.173Z,75.84
2022-10-17T01:06:29.121Z,75.74
2022-10-17T01:06:40.699Z,75.77
2022-10-17T01:06:49.132Z,75.84
2022-10-17T01:06:59.162Z,75.68
2022-10-17T01:07:09.746Z,75.71
2022-10-17T01:07:19.141Z,75.76
2022-10-17T01:07:33.165Z,75.69
2022-10-17T01:07:40.253Z,76.14
2022-10-17T01:07:50.244Z,75.93
2022-10-17T01:07:59.324Z,75.78
2022-10-17T01:08:09.311Z,75.72
2022-10-17T01:08:19.867Z,75.74
2022-10-17T01:08:30.753Z,75.74
2022-10-17T01:08:40.816Z,75.83
2022-10-17T01:08:49.552Z,75.77
2022-10-17T01:09:00.753Z,75.69
2022-10-17T01:09:09.871Z,75.80
2022-10-17T01:09:19.283Z,75.75
2022-10-17T01:09:30.763Z,75.72
2022-10-17T01:09:39.354Z,75.79
2022-10-17T01:09:50.073Z,75.68
2022-10-17T01:10:00.743Z,75.80
2022-10-17T01:10:09.896Z,75.81
2022-10-17T01:10:19.509Z,75.70
2022-10-17T01:10:30.734Z,75.72
2022-10-17T01:10:39.874Z,75.82
2022-10-17T01:10:50.713Z,75.66
2022-10-17T01:10:59.434Z,75.76
2022-10-17T01:11:09.876Z,75.65
2022-10-17T01:11:19.917Z,75.65
2022-10-17T01:11:29.953Z,75.67
2022-10-17T01:11:39.983Z,75.72
2022-10-17T01:11:49.301Z,75.74
2022-10-17T01:11:59.955Z,75.66
2022-10-17T01:12:10.023Z,75.69
2022-10-17T01:12:20.033Z,75.68
2022-10-17T01:12:29.529Z,75.67
2022-10-17T01:12:40.285Z,75.64
2022-10-17T01:12:51.093Z,75.66
2022-10-17T01:13:00.707Z,75.73
2022-10-17T01:13:09.311Z,75.69
2022-10-17T01:13:19.514Z,75.57
2022-10-17T01:13:30.707Z,75.63
2022-10-17T01:13:39.254Z,75.68
2022-10-17T01:13:50.704Z,75.55
2022-10-17T01:13:59.277Z,75.64
2022-10-17T01:14:10.123Z,75.55
2022-10-17T01:14:19.325Z,75.56
2022-10-17T01:14:30.137Z,75.49
2022-10-17T01:14:40.714Z,75.54
2022-10-17T01:14:49.385Z,75.48
2022-10-17T01:15:00.695Z,75.37
2022-10-17T01:15:09.306Z,75.50
2022-10-17T01:15:20.695Z,75.33
2022-10-17T01:15:29.257Z,75.40
2022-10-17T01:15:40.025Z,75.27
2022-10-17T01:15:50.694Z,75.28
2022-10-17T01:16:00.700Z,75.29
2022-10-17T01:16:09.224Z,75.24
2022-10-17T01:16:19.314Z,75.07
2022-10-17T01:16:30.694Z,75.08
2022-10-17T01:16:39.239Z,75.21
2022-10-17T01:16:50.686Z,75.05
2022-10-17T01:17:00.686Z,75.19
2022-10-17T01:17:10.194Z,75.14
2022-10-17T01:17:20.704Z,75.07
2022-10-17T01:17:30.703Z,75.11
2022-10-17T01:17:39.241Z,75.09
2022-10-17T01:17:50.686Z,75.00
2022-10-17T01:18:00.676Z,75.15
2022-10-17T01:18:09.252Z,75.08
2022-10-17T01:18:20.703Z,75.03
2022-10-17T01:18:30.683Z,75.13
2022-10-17T01:18:40.678Z,75.14
2022-10-17T01:18:50.676Z,75.08
2022-10-17T01:18:59.225Z,75.08
2022-10-17T01:19:09.316Z,75.01
2022-10-17T01:19:20.710Z,74.99
2022-10-17T01:19:30.688Z,75.13
2022-10-17T01:19:40.667Z,75.04
2022-10-17T01:19:50.666Z,75.06
2022-10-17T01:20:00.669Z,75.04
2022-10-17T01:20:10.656Z,75.02
2022-10-17T01:20:19.426Z,75.00
2022-10-17T01:20:30.722Z,74.93
2022-10-17T01:20:40.669Z,75.06
2022-10-17T01:20:50.161Z,75.04
2022-10-17T01:21:00.695Z,74.97
2022-10-17T01:21:10.657Z,75.06
2022-10-17T01:21:20.157Z,75.00
2022-10-17T01:21:29.224Z,74.95
2022-10-17T01:21:39.216Z,74.93
2022-10-17T01:21:50.658Z,74.97
2022-10-17T01:21:59.246Z,75.07
2022-10-17T01:22:10.167Z,74.88
2022-10-17T01:22:20.676Z,75.01
2022-10-17T01:22:30.893Z,75.02
2022-10-17T01:22:40.637Z,75.00
2022-10-17T01:22:49.181Z,74.94
2022-10-17T01:23:00.657Z,74.87
2022-10-17T01:23:10.657Z,75.05
2022-10-17T01:23:20.637Z,75.00
2022-10-17T01:23:29.187Z,75.01
2022-10-17T01:23:40.639Z,74.86
2022-10-17T01:23:50.626Z,75.08
2022-10-17T01:23:59.187Z,75.06
2022-10-17T01:24:09.197Z,74.93
2022-10-17T01:24:19.197Z,74.97
2022-10-17T01:24:30.638Z,75.05
2022-10-17T01:24:39.179Z,75.13
2022-10-17T01:24:50.167Z,75.02
2022-10-17T01:25:00.628Z,75.13
2022-10-17T01:25:47.976Z,75.81
2022-10-17T01:25:56.545Z,75.58
2022-10-17T01:26:07.476Z,75.26
2022-10-17T01:26:16.538Z,75.28
2022-10-17T01:26:28.023Z,75.18
2022-10-17T01:26:38.007Z,75.31
2022-10-17T01:26:46.556Z,75.24
2022-10-17T01:26:58.001Z,75.13
2022-10-17T01:27:06.526Z,75.30
2022-10-17T01:27:17.988Z,75.19
2022-10-17T01:27:27.989Z,75.31
2022-10-17T01:27:36.606Z,75.25
2022-10-17T01:27:46.802Z,75.19
2022-10-17T01:27:56.696Z,75.27
2022-10-17T01:28:07.986Z,75.26
2022-10-17T01:28:17.978Z,75.32
2022-10-17T01:28:26.937Z,75.28
2022-10-17T01:28:36.942Z,75.18
2022-10-17T01:28:46.766Z,75.28
2022-10-17T01:28:56.518Z,75.24
2022-10-17T01:29:06.835Z,75.22
2022-10-17T01:29:17.427Z,75.35
2022-10-17T01:29:26.509Z,75.35
2022-10-17T01:29:36.538Z,75.23
2022-10-17T01:29:46.758Z,75.30
2022-10-17T01:29:56.518Z,75.30
2022-10-17T01:30:06.545Z,75.27
2022-10-17T01:30:18.025Z,75.27
2022-10-17T01:30:26.499Z,75.41
2022-10-17T01:30:36.537Z,75.29
2022-10-17T01:30:46.497Z,75.32
2022-10-17T01:30:56.520Z,75.40
2022-10-17T01:31:06.537Z,75.33
2022-10-17T01:31:16.495Z,75.39
2022-10-17T01:31:26.519Z,75.39
2022-10-17T01:31:36.527Z,75.39
2022-10-17T01:31:46.507Z,75.40
2022-10-17T01:31:56.521Z,75.47
2022-10-17T01:32:06.508Z,75.46
2022-10-17T01:32:16.507Z,75.50
2022-10-17T01:32:28.329Z,75.49
2022-10-17T01:32:36.488Z,75.72
2022-10-17T01:32:46.529Z,75.49
2022-10-17T01:32:57.948Z,75.59
2022-10-17T01:33:07.953Z,75.75
2022-10-17T01:33:17.935Z,75.73
2022-10-17T01:33:26.487Z,75.73
2022-10-17T01:33:36.519Z,75.60
2022-10-17T01:33:47.959Z,75.73
2022-10-17T01:33:57.937Z,75.83
2022-10-17T01:34:07.938Z,75.77
2022-10-17T01:34:17.919Z,75.81
2022-10-17T01:34:27.929Z,75.80
2022-10-17T01:34:36.498Z,75.84
2022-10-17T01:34:46.480Z,75.79
2022-10-17T01:34:56.497Z,75.84
2022-10-17T01:35:06.480Z,75.90
2022-10-17T01:35:17.938Z,75.93
2022-10-17T01:35:27.938Z,76.04
2022-10-17T01:35:38.103Z,76.01
2022-10-17T01:35:47.899Z,76.07
2022-10-17T01:36:01.824Z,76.12
2022-10-17T01:36:08.488Z,76.49
2022-10-17T01:36:18.960Z,76.35
2022-10-17T01:36:27.521Z,76.32
2022-10-17T01:36:38.980Z,76.21
2022-10-17T01:36:48.059Z,76.32
2022-10-17T01:36:57.519Z,76.28
2022-10-17T01:37:07.613Z,76.29
2022-10-17T01:37:17.497Z,76.33
2022-10-17T01:37:27.507Z,76.32
2022-10-17T01:37:39.014Z,76.29
2022-10-17T01:37:47.542Z,76.38
2022-10-17T01:37:58.980Z,76.27
2022-10-17T01:38:08.450Z,76.37
2022-10-17T01:38:17.490Z,76.32
2022-10-17T01:38:27.502Z,76.24
2022-10-17T01:38:39.003Z,76.25
2022-10-17T01:38:47.480Z,76.38
2022-10-17T01:38:58.939Z,76.28
2022-10-17T01:39:07.552Z,76.32
2022-10-17T01:39:17.489Z,76.13
2022-10-17T01:39:29.983Z,76.08
2022-10-17T01:39:39.100Z,76.26
2022-10-17T01:39:48.931Z,76.31
2022-10-17T01:39:57.489Z,76.11
2022-10-17T01:40:07.550Z,75.81
2022-10-17T01:40:17.470Z,75.74
2022-10-17T01:40:27.483Z,75.61
2022-10-17T01:40:37.495Z,75.58
2022-10-17T01:40:47.478Z,75.53
2022-10-17T01:40:58.951Z,75.46
2022-10-17T01:41:08.941Z,75.47
2022-10-17T01:41:17.482Z,75.36
2022-10-17T01:41:28.951Z,75.15
2022-10-17T01:41:38.921Z,75.30
2022-10-17T01:41:47.471Z,75.18
2022-10-17T01:41:58.933Z,75.07
2022-10-17T01:42:08.920Z,75.19
2022-10-17T01:42:18.921Z,75.17
2022-10-17T01:42:29.251Z,75.05
2022-10-17T01:42:37.471Z,75.09
2022-10-17T01:42:48.573Z,74.92
2022-10-17T01:42:57.491Z,74.94
2022-10-17T01:43:07.460Z,74.79
2022-10-17T01:43:18.901Z,74.82
2022-10-17T01:43:27.452Z,74.83
2022-10-17T01:43:38.923Z,74.73
2022-10-17T01:43:47.471Z,74.80
2022-10-17T01:43:57.511Z,74.56
2022-10-17T01:44:08.892Z,74.43
2022-10-17T01:44:17.451Z,74.44
2022-10-17T01:44:27.452Z,74.35
2022-10-17T01:44:37.550Z,74.33
2022-10-17T01:44:47.471Z,74.33
2022-10-17T01:44:57.512Z,74.29
2022-10-17T01:45:07.551Z,74.33
2022-10-17T01:45:17.572Z,74.31
2022-10-17T01:45:27.516Z,74.30
2022-10-17T01:45:37.551Z,74.33
2022-10-17T01:45:47.433Z,74.38
2022-10-17T01:45:57.492Z,74.30
2022-10-17T01:46:07.578Z,74.34
2022-10-17T01:46:17.426Z,74.35
2022-10-17T01:46:27.443Z,74.34
2022-10-17T01:46:37.455Z,74.36
2022-10-17T01:46:47.657Z,74.29
2022-10-17T01:47:07.454Z,74.61
2022-10-17T01:47:18.899Z,74.33
2022-10-17T01:47:29.396Z,74.31
2022-10-17T01:47:38.873Z,74.19
2022-10-17T01:47:47.454Z,74.09
2022-10-17T01:47:57.714Z,73.94
2022-10-17T01:48:07.433Z,74.00
2022-10-17T01:48:17.432Z,74.00
2022-10-17T01:48:27.443Z,73.99
2022-10-17T01:48:38.880Z,74.04
2022-10-17T01:48:48.868Z,74.10
2022-10-17T01:48:57.434Z,74.01
2022-10-17T01:49:08.401Z,73.93
2022-10-17T01:49:17.469Z,74.07
2022-10-17T01:49:28.883Z,74.03
2022-10-17T01:49:38.862Z,74.13
2022-10-17T01:49:48.413Z,74.09
2022-10-17T01:49:58.867Z,74.05
2022-10-17T01:50:07.430Z,74.17
2022-10-17T01:50:18.873Z,74.00
2022-10-17T01:50:27.484Z,74.18
2022-10-17T01:50:38.848Z,74.11
2022-10-17T01:50:48.863Z,74.14
2022-10-17T01:50:57.412Z,74.12
2022-10-17T01:51:07.419Z,73.98
2022-10-17T01:51:17.629Z,74.04
2022-10-17T01:51:28.895Z,74.06
2022-10-17T01:51:38.843Z,74.13
2022-10-17T01:51:47.404Z,74.05
2022-10-17T01:51:57.413Z,73.94
2022-10-17T01:52:08.873Z,73.97
2022-10-17T01:52:18.852Z,74.10
2022-10-17T01:52:27.385Z,74.01
2022-10-17T01:52:38.846Z,73.89
2022-10-17T01:52:47.444Z,73.97
2022-10-17T01:52:57.413Z,73.88
2022-10-17T01:53:07.402Z,73.90
2022-10-17T01:53:18.824Z,73.88
2022-10-17T01:53:27.384Z,74.01
2022-10-17T01:53:37.383Z,73.91
2022-10-17T01:53:48.835Z,73.92
2022-10-17T01:53:58.043Z,74.02
2022-10-17T01:54:07.975Z,73.96
2022-10-17T01:54:17.363Z,73.97
2022-10-17T01:54:28.834Z,73.89
2022-10-17T01:54:37.372Z,74.03
2022-10-17T01:54:48.313Z,73.91
2022-10-17T01:54:57.385Z,74.01
2022-10-17T01:55:08.835Z,73.91
2022-10-17T01:55:18.807Z,74.07
2022-10-17T01:55:28.836Z,74.00
2022-10-17T01:55:38.816Z,74.03
2022-10-17T01:55:47.435Z,74.00
2022-10-17T01:56:08.834Z,74.04
2022-10-17T01:56:18.806Z,74.15
2022-10-17T01:56:28.905Z,74.16
2022-10-17T01:56:37.926Z,74.12
2022-10-17T01:56:48.799Z,74.07
2022-10-17T01:56:58.085Z,74.18
2022-10-17T01:57:08.808Z,74.17
2022-10-17T01:57:17.966Z,74.28
2022-10-17T01:57:28.272Z,74.19
2022-10-17T01:57:38.805Z,74.25
2022-10-17T01:57:47.978Z,74.29
2022-10-17T01:57:58.006Z,74.28
2022-10-17T01:58:08.049Z,74.31
2022-10-17T01:58:18.792Z,74.28
2022-10-17T01:58:28.788Z,74.39
2022-10-17T01:58:37.354Z,74.39
2022-10-17T01:58:48.089Z,74.30
2022-10-17T01:58:57.334Z,74.41
2022-10-17T01:59:07.356Z,74.35
2022-10-17T01:59:18.090Z,74.34
2022-10-17T01:59:28.784Z,74.39
2022-10-17T01:59:37.357Z,74.46
2022-10-17T01:59:47.393Z,74.32
2022-10-17T01:59:57.348Z,74.42
2022-10-17T02:00:08.799Z,74.42
2022-10-17T02:00:18.786Z,74.52
2022-10-17T02:00:27.342Z,74.45
2022-10-17T02:00:38.786Z,74.34
2022-10-17T02:00:48.809Z,74.50
2022-10-17T02:00:58.819Z,74.45
2022-10-17T02:01:07.365Z,74.42
2022-10-17T02:01:18.872Z,74.33
2022-10-17T02:01:28.446Z,74.46
2022-10-17T02:01:37.368Z,74.40
2022-10-17T02:01:47.410Z,74.34
2022-10-17T02:01:58.135Z,74.36
2022-10-17T02:02:08.367Z,74.47
2022-10-17T02:02:18.777Z,74.41
2022-10-17T02:02:27.356Z,74.48
2022-10-17T02:02:38.775Z,74.38
2022-10-17T02:02:47.397Z,74.49
2022-10-17T02:02:58.297Z,74.40
2022-10-17T02:03:07.316Z,74.47
2022-10-17T02:03:18.771Z,74.37
2022-10-17T02:03:28.248Z,74.52
2022-10-17T02:03:37.315Z,74.44
2022-10-17T02:03:48.769Z,74.37
2022-10-17T02:03:58.197Z,74.53
2022-10-17T02:04:07.312Z,74.44
2022-10-17T02:04:18.779Z,74.41
2022-10-17T02:04:27.302Z,74.56
2022-10-17T02:04:38.762Z,74.39
2022-10-17T02:04:47.297Z,74.53
2022-10-17T02:04:58.152Z,74.39
2022-10-17T02:05:08.758Z,74.51
2022-10-17T02:05:18.749Z,74.51
2022-10-17T02:05:28.062Z,74.48
2022-10-17T02:05:37.307Z,74.44
2022-10-17T02:05:48.752Z,74.37
2022-10-17T02:05:58.260Z,74.56
2022-10-17T02:06:08.748Z,74.51
2022-10-17T02:06:17.354Z,74.52
2022-10-17T02:06:28.215Z,74.42
2022-10-17T02:06:38.758Z,74.54
2022-10-17T02:06:48.729Z,74.53
2022-10-17T02:06:57.279Z,74.45
2022-10-17T02:07:07.597Z,74.29
2022-10-17T02:07:17.630Z,74.45
2022-10-17T02:07:29.295Z,74.42
2022-10-17T02:07:39.811Z,74.52
2022-10-17T02:07:47.506Z,74.51
2022-10-17T02:07:58.332Z,74.30
2022-10-17T02:08:07.539Z,74.45
2022-10-17T02:08:17.520Z,74.38
2022-10-17T02:08:27.548Z,74.42
2022-10-17T02:08:37.711Z,74.46
2022-10-17T02:08:48.948Z,74.50
2022-10-17T02:08:57.499Z,74.59
2022-10-17T02:09:07.520Z,74.48
2022-10-17T02:09:17.581Z,74.51
2022-10-17T02:09:28.440Z,74.57
2022-10-17T02:09:37.513Z,74.62
2022-10-17T02:09:48.950Z,74.51
2022-10-17T02:09:58.455Z,74.61